sensor_id;sensor_type;location;lat;lon;timestamp;temperature;humidity
9915;DHT22;4996;48.746;9.174;2022-08-03T00:01:32;22.40;99.90
9915;DHT22;4996;48.746;9.174;2022-08-03T00:03:58;22.30;99.90
9915;DHT22;4996;48.746;9.174;2022-08-03T00:06:23;22.40;99.90
9915;DHT22;4996;48.746;9.174;2022-08-03T00:08:49;22.30;99.90
9915;DHT22;4996;48.746;9.174;2022-08-03T00:11:14;22.20;99.90
9915;DHT22;4996;48.746;9.174;2022-08-03T00:13:40;22.20;99.90
9915;DHT22;4996;48.746;9.174;2022-08-03T00:16:06;22.20;99.90
9915;DHT22;4996;48.746;9.174;2022-08-03T00:18:31;22.20;99.90
9915;DHT22;4996;48.746;9.174;2022-08-03T00:20:57;22.20;99.90
9915;DHT22;4996;48.746;9.174;2022-08-03T00:23:22;22.20;99.90
9915;DHT22;4996;48.746;9.174;2022-08-03T00:25:48;22.20;99.90
9915;DHT22;4996;48.746;9.174;2022-08-03T00:28:13;22.10;99.90
9915;DHT22;4996;48.746;9.174;2022-08-03T00:30:39;22.10;99.90
9915;DHT22;4996;48.746;9.174;2022-08-03T00:33:04;22.00;99.90
9915;DHT22;4996;48.746;9.174;2022-08-03T00:35:30;22.00;99.90
9915;DHT22;4996;48.746;9.174;2022-08-03T00:37:56;22.00;99.90
9915;DHT22;4996;48.746;9.174;2022-08-03T00:40:21;22.00;99.90
9915;DHT22;4996;48.746;9.174;2022-08-03T00:42:56;22.00;99.90
9915;DHT22;4996;48.746;9.174;2022-08-03T00:45:24;21.90;99.90
9915;DHT22;4996;48.746;9.174;2022-08-03T00:47:50;21.90;99.90
9915;DHT22;4996;48.746;9.174;2022-08-03T00:50:17;21.90;99.90
9915;DHT22;4996;48.746;9.174;2022-08-03T00:52:42;21.90;99.90
9915;DHT22;4996;48.746;9.174;2022-08-03T00:55:09;21.90;99.90
9915;DHT22;4996;48.746;9.174;2022-08-03T00:57:35;21.90;99.90
9915;DHT22;4996;48.746;9.174;2022-08-03T01:00:02;21.90;99.90
9915;DHT22;4996;48.746;9.174;2022-08-03T01:02:28;22.00;99.90
9915;DHT22;4996;48.746;9.174;2022-08-03T01:04:55;21.90;99.90
9915;DHT22;4996;48.746;9.174;2022-08-03T01:13:02;21.90;99.90
9915;DHT22;4996;48.746;9.174;2022-08-03T01:18:33;21.90;99.90
9915;DHT22;4996;48.746;9.174;2022-08-03T01:21:02;21.80;99.90
9915;DHT22;4996;48.746;9.174;2022-08-03T01:31:39;21.60;99.90
9915;DHT22;4996;48.746;9.174;2022-08-03T01:34:08;21.60;99.90
9915;DHT22;4996;48.746;9.174;2022-08-03T01:36:38;21.50;99.90
9915;DHT22;4996;48.746;9.174;2022-08-03T01:39:05;21.50;99.90
9915;DHT22;4996;48.746;9.174;2022-08-03T01:41:39;21.50;99.90
9915;DHT22;4996;48.746;9.174;2022-08-03T01:44:08;21.50;99.90
9915;DHT22;4996;48.746;9.174;2022-08-03T01:46:37;21.40;99.90
9915;DHT22;4996;48.746;9.174;2022-08-03T01:49:07;21.40;99.90
9915;DHT22;4996;48.746;9.174;2022-08-03T01:51:35;21.40;99.90
9915;DHT22;4996;48.746;9.174;2022-08-03T01:54:02;21.40;99.90
9915;DHT22;4996;48.746;9.174;2022-08-03T01:56:29;21.40;99.90
9915;DHT22;4996;48.746;9.174;2022-08-03T01:58:56;21.40;99.90
9915;DHT22;4996;48.746;9.174;2022-08-03T02:01:24;21.40;99.90
9915;DHT22;4996;48.746;9.174;2022-08-03T02:03:50;21.40;99.90
9915;DHT22;4996;48.746;9.174;2022-08-03T02:06:19;21.40;99.90
9915;DHT22;4996;48.746;9.174;2022-08-03T02:08:46;21.40;99.90
9915;DHT22;4996;48.746;9.174;2022-08-03T02:11:12;21.40;99.90
9915;DHT22;4996;48.746;9.174;2022-08-03T02:13:38;21.30;99.90
9915;DHT22;4996;48.746;9.174;2022-08-03T02:16:04;21.30;99.90
9915;DHT22;4996;48.746;9.174;2022-08-03T02:18:31;21.30;99.90
9915;DHT22;4996;48.746;9.174;2022-08-03T02:21:00;21.20;99.90
9915;DHT22;4996;48.746;9.174;2022-08-03T02:23:25;21.30;99.90
9915;DHT22;4996;48.746;9.174;2022-08-03T02:25:55;21.20;99.90
9915;DHT22;4996;48.746;9.174;2022-08-03T02:28:28;21.20;99.90
9915;DHT22;4996;48.746;9.174;2022-08-03T02:30:57;21.20;99.90
9915;DHT22;4996;48.746;9.174;2022-08-03T02:33:29;21.30;99.90
9915;DHT22;4996;48.746;9.174;2022-08-03T02:35:57;21.30;99.90
9915;DHT22;4996;48.746;9.174;2022-08-03T02:38:27;21.20;99.90
9915;DHT22;4996;48.746;9.174;2022-08-03T02:40:57;21.20;99.90
9915;DHT22;4996;48.746;9.174;2022-08-03T02:43:23;21.10;99.90
9915;DHT22;4996;48.746;9.174;2022-08-03T02:45:50;21.00;99.90
9915;DHT22;4996;48.746;9.174;2022-08-03T02:48:20;21.00;99.90
9915;DHT22;4996;48.746;9.174;2022-08-03T02:50:48;21.00;99.90
9915;DHT22;4996;48.746;9.174;2022-08-03T02:53:16;21.00;99.90
9915;DHT22;4996;48.746;9.174;2022-08-03T02:55:43;21.00;99.90
9915;DHT22;4996;48.746;9.174;2022-08-03T02:58:13;20.90;99.90
9915;DHT22;4996;48.746;9.174;2022-08-03T03:00:39;21.20;99.90
9915;DHT22;4996;48.746;9.174;2022-08-03T03:03:05;20.90;99.90
9915;DHT22;4996;48.746;9.174;2022-08-03T03:05:32;20.90;99.90
9915;DHT22;4996;48.746;9.174;2022-08-03T03:07:58;20.80;99.90
9915;DHT22;4996;48.746;9.174;2022-08-03T03:10:25;20.80;99.90
9915;DHT22;4996;48.746;9.174;2022-08-03T03:12:54;20.80;99.90
9915;DHT22;4996;48.746;9.174;2022-08-03T03:15:21;20.70;99.90
9915;DHT22;4996;48.746;9.174;2022-08-03T03:17:48;20.70;99.90
9915;DHT22;4996;48.746;9.174;2022-08-03T03:20:14;20.70;99.90
9915;DHT22;4996;48.746;9.174;2022-08-03T03:22:41;20.70;99.90
9915;DHT22;4996;48.746;9.174;2022-08-03T03:25:08;20.70;99.90
9915;DHT22;4996;48.746;9.174;2022-08-03T03:27:34;20.70;99.90
9915;DHT22;4996;48.746;9.174;2022-08-03T03:30:01;20.70;99.90
9915;DHT22;4996;48.746;9.174;2022-08-03T03:32:27;20.70;99.90
9915;DHT22;4996;48.746;9.174;2022-08-03T03:34:54;20.70;99.90
9915;DHT22;4996;48.746;9.174;2022-08-03T03:37:21;20.70;99.90
9915;DHT22;4996;48.746;9.174;2022-08-03T03:39:46;20.70;99.90
9915;DHT22;4996;48.746;9.174;2022-08-03T03:42:12;20.70;99.90
9915;DHT22;4996;48.746;9.174;2022-08-03T03:44:38;20.60;99.90
9915;DHT22;4996;48.746;9.174;2022-08-03T03:47:03;20.30;99.90
9915;DHT22;4996;48.746;9.174;2022-08-03T03:49:30;20.40;99.90
9915;DHT22;4996;48.746;9.174;2022-08-03T03:51:56;20.50;99.90
9915;DHT22;4996;48.746;9.174;2022-08-03T03:54:21;20.40;99.90
9915;DHT22;4996;48.746;9.174;2022-08-03T03:56:47;20.40;99.90
9915;DHT22;4996;48.746;9.174;2022-08-03T03:59:13;20.40;99.90
9915;DHT22;4996;48.746;9.174;2022-08-03T04:01:39;20.40;99.90
9915;DHT22;4996;48.746;9.174;2022-08-03T04:04:05;20.40;99.90
9915;DHT22;4996;48.746;9.174;2022-08-03T04:06:50;20.40;99.90
9915;DHT22;4996;48.746;9.174;2022-08-03T04:09:35;20.40;99.90
9915;DHT22;4996;48.746;9.174;2022-08-03T04:12:22;20.40;99.90
9915;DHT22;4996;48.746;9.174;2022-08-03T04:14:49;20.40;99.90
9915;DHT22;4996;48.746;9.174;2022-08-03T04:17:17;20.60;99.90
9915;DHT22;4996;48.746;9.174;2022-08-03T04:19:52;20.60;99.90
9915;DHT22;4996;48.746;9.174;2022-08-03T04:22:24;20.40;99.90
9915;DHT22;4996;48.746;9.174;2022-08-03T04:25:07;20.40;99.90
9915;DHT22;4996;48.746;9.174;2022-08-03T04:27:38;20.40;99.90
9915;DHT22;4996;48.746;9.174;2022-08-03T04:30:06;20.40;99.90
9915;DHT22;4996;48.746;9.174;2022-08-03T04:32:32;20.40;99.90
9915;DHT22;4996;48.746;9.174;2022-08-03T04:34:59;20.50;99.90
9915;DHT22;4996;48.746;9.174;2022-08-03T04:37:29;20.50;99.90
9915;DHT22;4996;48.746;9.174;2022-08-03T04:39:58;20.50;99.90
9915;DHT22;4996;48.746;9.174;2022-08-03T04:42:26;20.50;99.90
9915;DHT22;4996;48.746;9.174;2022-08-03T04:44:52;20.50;99.90
9915;DHT22;4996;48.746;9.174;2022-08-03T04:47:18;20.50;99.90
9915;DHT22;4996;48.746;9.174;2022-08-03T04:49:45;20.50;99.90
9915;DHT22;4996;48.746;9.174;2022-08-03T04:52:11;20.50;99.90
9915;DHT22;4996;48.746;9.174;2022-08-03T04:54:41;20.50;99.90
9915;DHT22;4996;48.746;9.174;2022-08-03T04:57:08;20.50;99.90
9915;DHT22;4996;48.746;9.174;2022-08-03T04:59:34;20.60;99.90
9915;DHT22;4996;48.746;9.174;2022-08-03T05:01:59;20.60;99.90
9915;DHT22;4996;48.746;9.174;2022-08-03T05:04:25;20.60;99.90
9915;DHT22;4996;48.746;9.174;2022-08-03T05:06:50;20.60;99.90
9915;DHT22;4996;48.746;9.174;2022-08-03T05:09:16;20.70;99.90
9915;DHT22;4996;48.746;9.174;2022-08-03T05:11:41;20.70;99.90
9915;DHT22;4996;48.746;9.174;2022-08-03T05:14:07;20.80;99.90
9915;DHT22;4996;48.746;9.174;2022-08-03T05:16:32;20.80;99.90
9915;DHT22;4996;48.746;9.174;2022-08-03T05:18:58;20.80;99.90
9915;DHT22;4996;48.746;9.174;2022-08-03T05:21:23;20.90;99.90
9915;DHT22;4996;48.746;9.174;2022-08-03T05:23:49;20.90;99.90
9915;DHT22;4996;48.746;9.174;2022-08-03T05:26:14;21.00;99.90
9915;DHT22;4996;48.746;9.174;2022-08-03T05:28:40;21.00;99.90
9915;DHT22;4996;48.746;9.174;2022-08-03T05:31:06;21.10;99.90
9915;DHT22;4996;48.746;9.174;2022-08-03T05:33:32;21.20;99.90
9915;DHT22;4996;48.746;9.174;2022-08-03T05:35:57;21.20;99.90
9915;DHT22;4996;48.746;9.174;2022-08-03T05:38:24;21.30;99.90
9915;DHT22;4996;48.746;9.174;2022-08-03T05:40:50;21.40;99.90
9915;DHT22;4996;48.746;9.174;2022-08-03T05:43:15;21.40;99.90
9915;DHT22;4996;48.746;9.174;2022-08-03T05:45:41;21.50;99.90
9915;DHT22;4996;48.746;9.174;2022-08-03T05:48:06;21.60;99.90
9915;DHT22;4996;48.746;9.174;2022-08-03T05:50:32;21.60;99.90
9915;DHT22;4996;48.746;9.174;2022-08-03T05:52:57;21.70;99.90
9915;DHT22;4996;48.746;9.174;2022-08-03T05:55:23;21.80;99.90
9915;DHT22;4996;48.746;9.174;2022-08-03T05:57:48;21.90;99.90
9915;DHT22;4996;48.746;9.174;2022-08-03T06:00:15;22.00;99.90
9915;DHT22;4996;48.746;9.174;2022-08-03T06:02:40;22.10;99.90
9915;DHT22;4996;48.746;9.174;2022-08-03T06:05:06;22.10;99.90
9915;DHT22;4996;48.746;9.174;2022-08-03T06:07:33;22.20;99.90
9915;DHT22;4996;48.746;9.174;2022-08-03T06:09:58;22.40;99.90
9915;DHT22;4996;48.746;9.174;2022-08-03T06:12:26;22.40;99.90
9915;DHT22;4996;48.746;9.174;2022-08-03T06:14:52;22.60;99.90
9915;DHT22;4996;48.746;9.174;2022-08-03T06:17:17;22.60;99.90
9915;DHT22;4996;48.746;9.174;2022-08-03T06:19:43;22.70;99.90
9915;DHT22;4996;48.746;9.174;2022-08-03T06:22:08;22.80;99.90
9915;DHT22;4996;48.746;9.174;2022-08-03T06:24:34;22.90;99.90
9915;DHT22;4996;48.746;9.174;2022-08-03T06:26:59;23.00;99.90
9915;DHT22;4996;48.746;9.174;2022-08-03T06:29:25;23.00;99.90
9915;DHT22;4996;48.746;9.174;2022-08-03T06:31:50;23.10;99.90
9915;DHT22;4996;48.746;9.174;2022-08-03T06:34:16;23.30;99.90
9915;DHT22;4996;48.746;9.174;2022-08-03T06:36:42;23.40;99.90
9915;DHT22;4996;48.746;9.174;2022-08-03T06:39:07;23.50;99.90
9915;DHT22;4996;48.746;9.174;2022-08-03T06:41:33;23.60;99.90
9915;DHT22;4996;48.746;9.174;2022-08-03T06:43:59;23.60;99.90
9915;DHT22;4996;48.746;9.174;2022-08-03T06:46:24;23.70;99.90
9915;DHT22;4996;48.746;9.174;2022-08-03T06:48:50;23.90;99.90
9915;DHT22;4996;48.746;9.174;2022-08-03T06:51:15;23.90;99.90
9915;DHT22;4996;48.746;9.174;2022-08-03T06:53:41;24.20;99.90
9915;DHT22;4996;48.746;9.174;2022-08-03T06:56:07;24.20;99.90
9915;DHT22;4996;48.746;9.174;2022-08-03T06:58:33;24.30;99.90
9915;DHT22;4996;48.746;9.174;2022-08-03T07:00:58;24.40;99.90
9915;DHT22;4996;48.746;9.174;2022-08-03T07:03:24;24.50;99.90
9915;DHT22;4996;48.746;9.174;2022-08-03T07:05:49;24.50;99.90
9915;DHT22;4996;48.746;9.174;2022-08-03T07:08:16;24.60;99.90
9915;DHT22;4996;48.746;9.174;2022-08-03T07:10:42;24.80;99.90
9915;DHT22;4996;48.746;9.174;2022-08-03T07:13:08;24.90;99.90
9915;DHT22;4996;48.746;9.174;2022-08-03T07:15:34;25.00;99.90
9915;DHT22;4996;48.746;9.174;2022-08-03T07:17:59;25.10;99.90
9915;DHT22;4996;48.746;9.174;2022-08-03T07:20:25;25.10;99.90
9915;DHT22;4996;48.746;9.174;2022-08-03T07:22:51;25.20;99.90
9915;DHT22;4996;48.746;9.174;2022-08-03T07:25:16;25.40;99.90
9915;DHT22;4996;48.746;9.174;2022-08-03T07:27:43;25.50;99.90
9915;DHT22;4996;48.746;9.174;2022-08-03T07:30:09;25.40;99.90
9915;DHT22;4996;48.746;9.174;2022-08-03T07:32:34;25.60;99.90
9915;DHT22;4996;48.746;9.174;2022-08-03T07:35:00;25.80;99.90
9915;DHT22;4996;48.746;9.174;2022-08-03T07:37:26;25.90;99.90
9915;DHT22;4996;48.746;9.174;2022-08-03T07:39:51;26.10;99.90
9915;DHT22;4996;48.746;9.174;2022-08-03T07:42:17;26.10;99.90
9915;DHT22;4996;48.746;9.174;2022-08-03T07:44:42;26.10;99.90
9915;DHT22;4996;48.746;9.174;2022-08-03T07:47:08;26.40;99.90
9915;DHT22;4996;48.746;9.174;2022-08-03T07:49:38;26.50;99.90
9915;DHT22;4996;48.746;9.174;2022-08-03T07:52:04;26.70;99.90
9915;DHT22;4996;48.746;9.174;2022-08-03T07:54:48;26.80;99.90
9915;DHT22;4996;48.746;9.174;2022-08-03T07:57:13;27.10;99.90
9915;DHT22;4996;48.746;9.174;2022-08-03T07:59:39;27.30;99.90
9915;DHT22;4996;48.746;9.174;2022-08-03T08:02:05;27.40;99.90
9915;DHT22;4996;48.746;9.174;2022-08-03T08:04:31;27.50;99.90
9915;DHT22;4996;48.746;9.174;2022-08-03T08:06:56;27.70;99.90
9915;DHT22;4996;48.746;9.174;2022-08-03T08:09:22;27.80;99.90
9915;DHT22;4996;48.746;9.174;2022-08-03T08:11:48;27.90;99.90
9915;DHT22;4996;48.746;9.174;2022-08-03T08:14:14;28.10;99.90
9915;DHT22;4996;48.746;9.174;2022-08-03T08:16:39;28.40;99.90
9915;DHT22;4996;48.746;9.174;2022-08-03T08:19:05;28.70;99.90
9915;DHT22;4996;48.746;9.174;2022-08-03T08:21:30;29.00;99.90
9915;DHT22;4996;48.746;9.174;2022-08-03T08:23:56;29.10;99.90
9915;DHT22;4996;48.746;9.174;2022-08-03T08:26:21;29.40;99.90
9915;DHT22;4996;48.746;9.174;2022-08-03T08:28:47;29.70;99.90
9915;DHT22;4996;48.746;9.174;2022-08-03T08:31:13;29.80;99.90
9915;DHT22;4996;48.746;9.174;2022-08-03T08:33:38;29.80;99.90
9915;DHT22;4996;48.746;9.174;2022-08-03T08:36:04;30.00;99.90
9915;DHT22;4996;48.746;9.174;2022-08-03T08:38:30;30.10;99.90
9915;DHT22;4996;48.746;9.174;2022-08-03T08:40:55;30.10;99.90
9915;DHT22;4996;48.746;9.174;2022-08-03T08:43:21;30.50;99.90
9915;DHT22;4996;48.746;9.174;2022-08-03T08:45:51;30.70;99.90
9915;DHT22;4996;48.746;9.174;2022-08-03T08:48:24;31.10;99.90
9915;DHT22;4996;48.746;9.174;2022-08-03T08:50:55;31.20;99.90
9915;DHT22;4996;48.746;9.174;2022-08-03T08:53:22;31.10;99.90
9915;DHT22;4996;48.746;9.174;2022-08-03T08:55:47;31.10;99.90
9915;DHT22;4996;48.746;9.174;2022-08-03T08:58:15;31.10;99.90
9915;DHT22;4996;48.746;9.174;2022-08-03T09:00:44;31.30;99.90
9915;DHT22;4996;48.746;9.174;2022-08-03T09:03:11;31.30;99.90
9915;DHT22;4996;48.746;9.174;2022-08-03T09:05:41;31.40;99.90
9915;DHT22;4996;48.746;9.174;2022-08-03T09:08:07;31.80;99.90
9915;DHT22;4996;48.746;9.174;2022-08-03T09:10:32;31.90;99.90
9915;DHT22;4996;48.746;9.174;2022-08-03T09:12:59;32.00;98.50
9915;DHT22;4996;48.746;9.174;2022-08-03T09:15:29;32.20;98.10
9915;DHT22;4996;48.746;9.174;2022-08-03T09:17:57;32.50;97.30
9915;DHT22;4996;48.746;9.174;2022-08-03T09:20:25;32.40;96.00
9915;DHT22;4996;48.746;9.174;2022-08-03T09:22:59;32.30;96.00
9915;DHT22;4996;48.746;9.174;2022-08-03T09:25:35;32.30;95.40
9915;DHT22;4996;48.746;9.174;2022-08-03T09:28:07;32.20;95.30
9915;DHT22;4996;48.746;9.174;2022-08-03T09:30:35;32.60;94.70
9915;DHT22;4996;48.746;9.174;2022-08-03T09:33:02;32.60;94.30
9915;DHT22;4996;48.746;9.174;2022-08-03T09:35:27;32.40;93.70
9915;DHT22;4996;48.746;9.174;2022-08-03T09:40:42;32.40;93.00
9915;DHT22;4996;48.746;9.174;2022-08-03T09:43:08;32.70;92.80
9915;DHT22;4996;48.746;9.174;2022-08-03T09:45:38;32.90;92.40
9915;DHT22;4996;48.746;9.174;2022-08-03T09:50:53;33.10;89.40
9915;DHT22;4996;48.746;9.174;2022-08-03T09:53:19;33.60;89.80
9915;DHT22;4996;48.746;9.174;2022-08-03T09:55:59;33.70;87.00
9915;DHT22;4996;48.746;9.174;2022-08-03T09:58:27;33.80;86.90
9915;DHT22;4996;48.746;9.174;2022-08-03T10:00:54;33.80;87.90
9915;DHT22;4996;48.746;9.174;2022-08-03T10:03:20;33.50;86.40
9915;DHT22;4996;48.746;9.174;2022-08-03T10:05:45;33.40;84.00
9915;DHT22;4996;48.746;9.174;2022-08-03T10:08:15;33.50;83.80
9915;DHT22;4996;48.746;9.174;2022-08-03T10:10:42;33.00;84.10
9915;DHT22;4996;48.746;9.174;2022-08-03T10:13:16;32.60;83.40
9915;DHT22;4996;48.746;9.174;2022-08-03T10:15:42;32.60;85.50
9915;DHT22;4996;48.746;9.174;2022-08-03T10:18:08;32.80;86.10
9915;DHT22;4996;48.746;9.174;2022-08-03T10:20:38;33.00;84.30
9915;DHT22;4996;48.746;9.174;2022-08-03T10:23:07;33.20;84.50
9915;DHT22;4996;48.746;9.174;2022-08-03T10:25:33;33.00;85.10
9915;DHT22;4996;48.746;9.174;2022-08-03T10:28:01;33.00;85.70
9915;DHT22;4996;48.746;9.174;2022-08-03T10:30:28;33.30;84.40
9915;DHT22;4996;48.746;9.174;2022-08-03T10:33:02;33.30;82.60
9915;DHT22;4996;48.746;9.174;2022-08-03T10:35:30;33.20;81.30
9915;DHT22;4996;48.746;9.174;2022-08-03T10:38:05;33.20;81.20
9915;DHT22;4996;48.746;9.174;2022-08-03T10:40:33;33.00;81.40
9915;DHT22;4996;48.746;9.174;2022-08-03T10:43:04;33.20;80.20
9915;DHT22;4996;48.746;9.174;2022-08-03T10:45:33;33.20;80.90
9915;DHT22;4996;48.746;9.174;2022-08-03T10:48:00;33.20;81.00
9915;DHT22;4996;48.746;9.174;2022-08-03T10:50:26;32.90;79.30
9915;DHT22;4996;48.746;9.174;2022-08-03T10:53:05;32.70;78.80
9915;DHT22;4996;48.746;9.174;2022-08-03T11:01:11;32.90;79.90
9915;DHT22;4996;48.746;9.174;2022-08-03T11:06:25;32.80;78.70
9915;DHT22;4996;48.746;9.174;2022-08-03T11:11:42;32.80;79.70
9915;DHT22;4996;48.746;9.174;2022-08-03T11:16:42;32.90;80.40
9915;DHT22;4996;48.746;9.174;2022-08-03T11:19:12;33.10;79.50
9915;DHT22;4996;48.746;9.174;2022-08-03T11:22:04;33.50;78.70
9915;DHT22;4996;48.746;9.174;2022-08-03T11:29:59;34.50;77.90
9915;DHT22;4996;48.746;9.174;2022-08-03T11:40:52;35.90;74.20
9915;DHT22;4996;48.746;9.174;2022-08-03T11:46:05;37.10;71.60
9915;DHT22;4996;48.746;9.174;2022-08-03T11:48:39;37.30;70.80
9915;DHT22;4996;48.746;9.174;2022-08-03T11:51:22;37.00;70.90
9915;DHT22;4996;48.746;9.174;2022-08-03T11:53:51;37.00;70.70
9915;DHT22;4996;48.746;9.174;2022-08-03T11:56:17;37.40;70.70
9915;DHT22;4996;48.746;9.174;2022-08-03T11:58:48;38.00;69.40
9915;DHT22;4996;48.746;9.174;2022-08-03T12:01:14;38.00;68.40
9915;DHT22;4996;48.746;9.174;2022-08-03T12:03:43;38.80;67.70
9915;DHT22;4996;48.746;9.174;2022-08-03T12:06:10;39.00;66.10
9915;DHT22;4996;48.746;9.174;2022-08-03T12:08:36;38.90;66.10
9915;DHT22;4996;48.746;9.174;2022-08-03T12:11:04;38.70;65.90
9915;DHT22;4996;48.746;9.174;2022-08-03T12:13:48;38.70;65.90
9915;DHT22;4996;48.746;9.174;2022-08-03T12:16:19;38.50;65.00
9915;DHT22;4996;48.746;9.174;2022-08-03T12:18:54;39.00;65.40
9915;DHT22;4996;48.746;9.174;2022-08-03T12:21:20;39.10;65.10
9915;DHT22;4996;48.746;9.174;2022-08-03T12:23:49;38.90;65.00
9915;DHT22;4996;48.746;9.174;2022-08-03T12:26:15;38.80;64.40
9915;DHT22;4996;48.746;9.174;2022-08-03T12:28:47;39.30;64.80
9915;DHT22;4996;48.746;9.174;2022-08-03T12:31:13;39.50;64.20
9915;DHT22;4996;48.746;9.174;2022-08-03T12:34:02;39.80;63.60
9915;DHT22;4996;48.746;9.174;2022-08-03T12:36:29;40.60;62.90
9915;DHT22;4996;48.746;9.174;2022-08-03T12:39:08;40.50;62.10
9915;DHT22;4996;48.746;9.174;2022-08-03T12:41:36;41.10;60.80
9915;DHT22;4996;48.746;9.174;2022-08-03T12:44:04;40.60;61.20
9915;DHT22;4996;48.746;9.174;2022-08-03T12:46:35;41.00;61.10
9915;DHT22;4996;48.746;9.174;2022-08-03T12:49:07;41.50;60.60
9915;DHT22;4996;48.746;9.174;2022-08-03T12:51:35;41.20;60.70
9915;DHT22;4996;48.746;9.174;2022-08-03T12:54:02;41.30;59.50
9915;DHT22;4996;48.746;9.174;2022-08-03T12:56:28;40.90;59.80
9915;DHT22;4996;48.746;9.174;2022-08-03T12:58:53;40.70;59.40
9915;DHT22;4996;48.746;9.174;2022-08-03T13:01:19;40.50;59.90
9915;DHT22;4996;48.746;9.174;2022-08-03T13:03:49;40.50;59.10
9915;DHT22;4996;48.746;9.174;2022-08-03T13:06:18;40.30;58.80
9915;DHT22;4996;48.746;9.174;2022-08-03T13:08:44;40.60;58.70
9915;DHT22;4996;48.746;9.174;2022-08-03T13:11:25;41.00;58.40
9915;DHT22;4996;48.746;9.174;2022-08-03T13:13:52;41.30;58.40
9915;DHT22;4996;48.746;9.174;2022-08-03T13:16:18;40.50;58.60
9915;DHT22;4996;48.746;9.174;2022-08-03T13:18:46;39.80;59.40
9915;DHT22;4996;48.746;9.174;2022-08-03T13:21:13;40.00;59.70
9915;DHT22;4996;48.746;9.174;2022-08-03T13:23:40;39.90;59.30
9915;DHT22;4996;48.746;9.174;2022-08-03T13:26:06;40.20;59.70
9915;DHT22;4996;48.746;9.174;2022-08-03T13:28:31;40.50;59.10
9915;DHT22;4996;48.746;9.174;2022-08-03T13:30:57;41.30;58.70
9915;DHT22;4996;48.746;9.174;2022-08-03T13:33:22;40.90;58.20
9915;DHT22;4996;48.746;9.174;2022-08-03T13:35:48;41.30;57.80
9915;DHT22;4996;48.746;9.174;2022-08-03T13:38:13;40.90;58.20
9915;DHT22;4996;48.746;9.174;2022-08-03T13:40:39;40.30;58.10
9915;DHT22;4996;48.746;9.174;2022-08-03T13:43:05;39.60;58.50
9915;DHT22;4996;48.746;9.174;2022-08-03T13:45:31;38.60;59.40
9915;DHT22;4996;48.746;9.174;2022-08-03T13:47:56;38.00;60.00
9915;DHT22;4996;48.746;9.174;2022-08-03T13:50:22;37.50;60.20
9915;DHT22;4996;48.746;9.174;2022-08-03T13:52:47;37.20;60.40
9915;DHT22;4996;48.746;9.174;2022-08-03T13:55:13;36.90;61.50
9915;DHT22;4996;48.746;9.174;2022-08-03T13:57:38;36.90;61.30
9915;DHT22;4996;48.746;9.174;2022-08-03T14:00:04;36.50;61.80
9915;DHT22;4996;48.746;9.174;2022-08-03T14:02:30;36.60;61.70
9915;DHT22;4996;48.746;9.174;2022-08-03T14:04:56;35.90;61.80
9915;DHT22;4996;48.746;9.174;2022-08-03T14:07:21;35.70;62.00
9915;DHT22;4996;48.746;9.174;2022-08-03T14:09:47;35.70;62.30
9915;DHT22;4996;48.746;9.174;2022-08-03T14:12:13;35.40;62.20
9915;DHT22;4996;48.746;9.174;2022-08-03T14:14:38;35.50;61.90
9915;DHT22;4996;48.746;9.174;2022-08-03T14:17:04;35.40;62.50
9915;DHT22;4996;48.746;9.174;2022-08-03T14:19:29;35.30;62.70
9915;DHT22;4996;48.746;9.174;2022-08-03T14:21:56;35.10;62.80
9915;DHT22;4996;48.746;9.174;2022-08-03T14:24:21;35.00;62.90
9915;DHT22;4996;48.746;9.174;2022-08-03T14:26:47;34.90;62.80
9915;DHT22;4996;48.746;9.174;2022-08-03T14:29:12;34.90;63.60
9915;DHT22;4996;48.746;9.174;2022-08-03T14:31:38;34.70;63.40
9915;DHT22;4996;48.746;9.174;2022-08-03T14:34:03;34.60;62.90
9915;DHT22;4996;48.746;9.174;2022-08-03T14:36:29;34.40;64.60
9915;DHT22;4996;48.746;9.174;2022-08-03T14:38:55;34.30;64.60
9915;DHT22;4996;48.746;9.174;2022-08-03T14:41:20;34.10;63.90
9915;DHT22;4996;48.746;9.174;2022-08-03T14:43:46;34.20;64.30
9915;DHT22;4996;48.746;9.174;2022-08-03T14:46:12;34.00;64.50
9915;DHT22;4996;48.746;9.174;2022-08-03T14:48:37;34.00;64.50
9915;DHT22;4996;48.746;9.174;2022-08-03T14:51:03;34.00;64.80
9915;DHT22;4996;48.746;9.174;2022-08-03T14:53:29;34.00;65.20
9915;DHT22;4996;48.746;9.174;2022-08-03T14:55:55;33.90;65.50
9915;DHT22;4996;48.746;9.174;2022-08-03T14:58:22;33.70;65.70
9915;DHT22;4996;48.746;9.174;2022-08-03T15:00:49;33.70;66.00
9915;DHT22;4996;48.746;9.174;2022-08-03T15:03:15;33.60;65.40
9915;DHT22;4996;48.746;9.174;2022-08-03T15:05:40;33.60;65.40
9915;DHT22;4996;48.746;9.174;2022-08-03T15:08:06;33.50;65.40
9915;DHT22;4996;48.746;9.174;2022-08-03T15:10:31;33.60;65.60
9915;DHT22;4996;48.746;9.174;2022-08-03T15:12:57;33.50;66.00
9915;DHT22;4996;48.746;9.174;2022-08-03T15:15:22;33.40;65.50
9915;DHT22;4996;48.746;9.174;2022-08-03T15:17:48;33.40;65.70
9915;DHT22;4996;48.746;9.174;2022-08-03T15:20:13;33.40;66.00
9915;DHT22;4996;48.746;9.174;2022-08-03T15:22:39;33.20;66.10
9915;DHT22;4996;48.746;9.174;2022-08-03T15:25:05;33.30;66.40
9915;DHT22;4996;48.746;9.174;2022-08-03T15:27:31;33.30;66.30
9915;DHT22;4996;48.746;9.174;2022-08-03T15:29:56;33.30;66.70
9915;DHT22;4996;48.746;9.174;2022-08-03T15:32:22;33.30;66.40
9915;DHT22;4996;48.746;9.174;2022-08-03T15:34:47;33.30;65.90
9915;DHT22;4996;48.746;9.174;2022-08-03T15:37:13;33.40;65.40
9915;DHT22;4996;48.746;9.174;2022-08-03T15:39:38;33.40;65.40
9915;DHT22;4996;48.746;9.174;2022-08-03T15:42:04;33.50;66.00
9915;DHT22;4996;48.746;9.174;2022-08-03T15:44:29;33.40;66.20
9915;DHT22;4996;48.746;9.174;2022-08-03T15:46:55;33.50;65.90
9915;DHT22;4996;48.746;9.174;2022-08-03T15:49:20;33.40;65.90
9915;DHT22;4996;48.746;9.174;2022-08-03T15:51:46;33.30;65.30
9915;DHT22;4996;48.746;9.174;2022-08-03T15:54:12;33.30;65.30
9915;DHT22;4996;48.746;9.174;2022-08-03T15:56:37;33.40;65.80
9915;DHT22;4996;48.746;9.174;2022-08-03T15:59:05;33.30;66.40
9915;DHT22;4996;48.746;9.174;2022-08-03T16:01:31;33.20;66.30
9915;DHT22;4996;48.746;9.174;2022-08-03T16:03:57;33.30;66.50
9915;DHT22;4996;48.746;9.174;2022-08-03T16:06:22;33.30;66.20
9915;DHT22;4996;48.746;9.174;2022-08-03T16:08:48;33.40;65.80
9915;DHT22;4996;48.746;9.174;2022-08-03T16:11:14;33.40;66.10
9915;DHT22;4996;48.746;9.174;2022-08-03T16:13:40;33.30;65.80
9915;DHT22;4996;48.746;9.174;2022-08-03T16:16:05;33.10;65.90
9915;DHT22;4996;48.746;9.174;2022-08-03T16:18:31;33.20;65.80
9915;DHT22;4996;48.746;9.174;2022-08-03T16:20:57;33.30;65.90
9915;DHT22;4996;48.746;9.174;2022-08-03T16:23:23;33.30;65.50
9915;DHT22;4996;48.746;9.174;2022-08-03T16:25:48;33.30;65.70
9915;DHT22;4996;48.746;9.174;2022-08-03T16:28:14;33.30;65.50
9915;DHT22;4996;48.746;9.174;2022-08-03T16:30:44;33.20;65.70
9915;DHT22;4996;48.746;9.174;2022-08-03T16:33:10;33.10;65.40
9915;DHT22;4996;48.746;9.174;2022-08-03T16:35:36;33.10;65.70
9915;DHT22;4996;48.746;9.174;2022-08-03T16:38:03;33.20;65.60
9915;DHT22;4996;48.746;9.174;2022-08-03T16:40:29;33.20;65.50
9915;DHT22;4996;48.746;9.174;2022-08-03T16:42:54;33.30;66.10
9915;DHT22;4996;48.746;9.174;2022-08-03T16:45:20;33.30;65.90
9915;DHT22;4996;48.746;9.174;2022-08-03T16:47:45;33.20;65.90
9915;DHT22;4996;48.746;9.174;2022-08-03T16:50:11;33.10;65.60
9915;DHT22;4996;48.746;9.174;2022-08-03T16:52:36;33.10;65.00
9915;DHT22;4996;48.746;9.174;2022-08-03T16:55:03;33.10;65.20